sensor_id;sensor_type;location;lat;lon;timestamp;P1;durP1;ratioP1;P2;durP2;ratioP2
30515;SDS011;17297;54.022;10.760;2023-05-10T00:00:54;3.47;;;2.50;;
30515;SDS011;17297;54.022;10.760;2023-05-10T00:03:20;3.63;;;2.08;;
30515;SDS011;17297;54.022;10.760;2023-05-10T00:05:45;3.03;;;2.08;;
30515;SDS011;17297;54.022;10.760;2023-05-10T00:08:10;2.33;;;1.92;;
30515;SDS011;17297;54.022;10.760;2023-05-10T00:10:36;3.08;;;2.22;;
30515;SDS011;17297;54.022;10.760;2023-05-10T00:13:02;2.42;;;2.20;;
30515;SDS011;17297;54.022;10.760;2023-05-10T00:15:27;3.60;;;2.20;;
30515;SDS011;17297;54.022;10.760;2023-05-10T00:17:53;2.25;;;2.05;;
30515;SDS011;17297;54.022;10.760;2023-05-10T00:20:18;2.90;;;2.05;;
30515;SDS011;17297;54.022;10.760;2023-05-10T00:22:43;2.53;;;2.33;;
30515;SDS011;17297;54.022;10.760;2023-05-10T00:25:09;3.35;;;2.40;;
30515;SDS011;17297;54.022;10.760;2023-05-10T00:27:35;3.17;;;2.25;;
30515;SDS011;17297;54.022;10.760;2023-05-10T00:30:00;2.70;;;2.28;;
30515;SDS011;17297;54.022;10.760;2023-05-10T00:32:26;3.25;;;2.08;;
30515;SDS011;17297;54.022;10.760;2023-05-10T00:34:51;3.72;;;2.10;;
30515;SDS011;17297;54.022;10.760;2023-05-10T00:37:17;2.33;;;2.13;;
30515;SDS011;17297;54.022;10.760;2023-05-10T00:39:42;2.67;;;2.30;;
30515;SDS011;17297;54.022;10.760;2023-05-10T00:42:07;2.80;;;2.33;;
30515;SDS011;17297;54.022;10.760;2023-05-10T00:44:33;3.67;;;2.65;;
30515;SDS011;17297;54.022;10.760;2023-05-10T00:46:58;3.65;;;2.30;;
30515;SDS011;17297;54.022;10.760;2023-05-10T00:49:24;3.47;;;2.33;;
30515;SDS011;17297;54.022;10.760;2023-05-10T00:51:50;3.50;;;2.40;;
30515;SDS011;17297;54.022;10.760;2023-05-10T00:54:15;2.90;;;2.40;;
30515;SDS011;17297;54.022;10.760;2023-05-10T00:56:41;3.05;;;2.38;;
30515;SDS011;17297;54.022;10.760;2023-05-10T00:59:11;3.10;;;2.83;;
30515;SDS011;17297;54.022;10.760;2023-05-10T01:01:36;3.20;;;2.38;;
30515;SDS011;17297;54.022;10.760;2023-05-10T01:04:02;3.15;;;2.40;;
30515;SDS011;17297;54.022;10.760;2023-05-10T01:06:28;2.60;;;2.40;;
30515;SDS011;17297;54.022;10.760;2023-05-10T01:08:54;2.67;;;2.00;;
30515;SDS011;17297;54.022;10.760;2023-05-10T01:11:20;2.75;;;2.25;;
30515;SDS011;17297;54.022;10.760;2023-05-10T01:13:47;3.13;;;2.22;;
30515;SDS011;17297;54.022;10.760;2023-05-10T01:16:19;2.80;;;2.50;;
30515;SDS011;17297;54.022;10.760;2023-05-10T01:18:46;6.63;;;2.58;;
30515;SDS011;17297;54.022;10.760;2023-05-10T01:24:07;3.05;;;2.80;;
30515;SDS011;17297;54.022;10.760;2023-05-10T01:29:36;3.53;;;2.70;;
30515;SDS011;17297;54.022;10.760;2023-05-10T01:32:24;3.00;;;1.98;;
30515;SDS011;17297;54.022;10.760;2023-05-10T01:35:10;2.42;;;2.17;;
30515;SDS011;17297;54.022;10.760;2023-05-10T01:37:44;4.47;;;2.75;;
30515;SDS011;17297;54.022;10.760;2023-05-10T01:40:23;3.75;;;2.53;;
30515;SDS011;17297;54.022;10.760;2023-05-10T01:42:58;3.17;;;2.50;;
30515;SDS011;17297;54.022;10.760;2023-05-10T01:45:41;3.15;;;2.50;;
30515;SDS011;17297;54.022;10.760;2023-05-10T01:48:37;6.47;;;3.15;;
30515;SDS011;17297;54.022;10.760;2023-05-10T01:51:29;4.35;;;3.28;;
30515;SDS011;17297;54.022;10.760;2023-05-10T01:54:00;4.30;;;2.25;;
30515;SDS011;17297;54.022;10.760;2023-05-10T01:56:28;3.13;;;2.75;;
30515;SDS011;17297;54.022;10.760;2023-05-10T01:58:55;3.78;;;3.47;;
30515;SDS011;17297;54.022;10.760;2023-05-10T02:01:22;3.17;;;2.92;;
30515;SDS011;17297;54.022;10.760;2023-05-10T02:03:50;3.97;;;2.83;;
30515;SDS011;17297;54.022;10.760;2023-05-10T02:06:16;3.63;;;3.17;;
30515;SDS011;17297;54.022;10.760;2023-05-10T02:08:45;6.05;;;4.00;;
30515;SDS011;17297;54.022;10.760;2023-05-10T02:11:12;4.47;;;3.30;;
30515;SDS011;17297;54.022;10.760;2023-05-10T02:13:39;4.35;;;3.85;;
30515;SDS011;17297;54.022;10.760;2023-05-10T02:16:05;4.55;;;3.20;;
30515;SDS011;17297;54.022;10.760;2023-05-10T02:18:31;4.25;;;3.22;;
30515;SDS011;17297;54.022;10.760;2023-05-10T02:20:58;3.67;;;2.85;;
30515;SDS011;17297;54.022;10.760;2023-05-10T02:23:25;3.53;;;2.78;;
30515;SDS011;17297;54.022;10.760;2023-05-10T02:25:51;3.72;;;2.63;;
30515;SDS011;17297;54.022;10.760;2023-05-10T02:28:19;4.18;;;3.15;;
30515;SDS011;17297;54.022;10.760;2023-05-10T02:30:48;3.45;;;3.13;;
30515;SDS011;17297;54.022;10.760;2023-05-10T02:33:15;4.65;;;3.28;;
30515;SDS011;17297;54.022;10.760;2023-05-10T02:35:44;4.60;;;2.50;;
30515;SDS011;17297;54.022;10.760;2023-05-10T02:38:11;4.13;;;2.92;;
30515;SDS011;17297;54.022;10.760;2023-05-10T02:40:39;3.38;;;2.63;;
30515;SDS011;17297;54.022;10.760;2023-05-10T02:43:06;8.57;;;3.65;;
30515;SDS011;17297;54.022;10.760;2023-05-10T02:45:37;3.20;;;2.90;;
30515;SDS011;17297;54.022;10.760;2023-05-10T02:48:04;3.70;;;2.90;;
30515;SDS011;17297;54.022;10.760;2023-05-10T02:50:30;3.25;;;2.80;;
30515;SDS011;17297;54.022;10.760;2023-05-10T02:53:02;3.28;;;2.97;;
30515;SDS011;17297;54.022;10.760;2023-05-10T02:55:35;3.15;;;2.80;;
30515;SDS011;17297;54.022;10.760;2023-05-10T02:58:04;5.25;;;2.92;;
30515;SDS011;17297;54.022;10.760;2023-05-10T03:00:30;3.50;;;3.00;;
30515;SDS011;17297;54.022;10.760;2023-05-10T03:02:56;4.63;;;2.95;;
30515;SDS011;17297;54.022;10.760;2023-05-10T03:05:22;3.85;;;2.85;;
30515;SDS011;17297;54.022;10.760;2023-05-10T03:07:48;4.70;;;2.80;;
30515;SDS011;17297;54.022;10.760;2023-05-10T03:10:13;3.55;;;2.83;;
30515;SDS011;17297;54.022;10.760;2023-05-10T03:12:47;5.32;;;3.08;;
30515;SDS011;17297;54.022;10.760;2023-05-10T03:15:37;3.25;;;2.95;;
30515;SDS011;17297;54.022;10.760;2023-05-10T03:18:15;4.15;;;2.92;;
30515;SDS011;17297;54.022;10.760;2023-05-10T03:20:47;4.03;;;3.33;;
30515;SDS011;17297;54.022;10.760;2023-05-10T03:25:57;5.00;;;3.47;;
30515;SDS011;17297;54.022;10.760;2023-05-10T03:28:24;3.95;;;3.05;;
30515;SDS011;17297;54.022;10.760;2023-05-10T03:30:51;4.47;;;3.25;;
30515;SDS011;17297;54.022;10.760;2023-05-10T03:33:17;3.97;;;3.58;;
30515;SDS011;17297;54.022;10.760;2023-05-10T03:35:45;4.30;;;3.90;;
30515;SDS011;17297;54.022;10.760;2023-05-10T03:38:11;5.13;;;3.33;;
30515;SDS011;17297;54.022;10.760;2023-05-10T03:40:37;7.05;;;3.75;;
30515;SDS011;17297;54.022;10.760;2023-05-10T03:43:02;3.97;;;3.20;;
30515;SDS011;17297;54.022;10.760;2023-05-10T03:45:28;5.53;;;3.13;;
30515;SDS011;17297;54.022;10.760;2023-05-10T03:47:53;4.45;;;3.60;;
30515;SDS011;17297;54.022;10.760;2023-05-10T03:50:19;3.58;;;3.28;;
30515;SDS011;17297;54.022;10.760;2023-05-10T03:52:45;4.70;;;3.80;;
30515;SDS011;17297;54.022;10.760;2023-05-10T03:55:10;4.53;;;3.95;;
30515;SDS011;17297;54.022;10.760;2023-05-10T03:57:37;4.70;;;3.28;;
30515;SDS011;17297;54.022;10.760;2023-05-10T04:00:05;3.83;;;3.40;;
30515;SDS011;17297;54.022;10.760;2023-05-10T04:02:39;3.70;;;3.40;;
30515;SDS011;17297;54.022;10.760;2023-05-10T04:05:05;5.32;;;3.58;;
30515;SDS011;17297;54.022;10.760;2023-05-10T04:07:30;4.80;;;3.78;;
30515;SDS011;17297;54.022;10.760;2023-05-10T04:09:55;4.30;;;3.90;;
30515;SDS011;17297;54.022;10.760;2023-05-10T04:12:21;4.50;;;3.58;;
30515;SDS011;17297;54.022;10.760;2023-05-10T04:14:47;5.25;;;3.60;;
30515;SDS011;17297;54.022;10.760;2023-05-10T04:17:12;4.60;;;3.80;;
30515;SDS011;17297;54.022;10.760;2023-05-10T04:19:37;5.22;;;4.72;;
30515;SDS011;17297;54.022;10.760;2023-05-10T04:22:03;6.10;;;3.88;;
30515;SDS011;17297;54.022;10.760;2023-05-10T04:24:29;5.03;;;4.00;;
30515;SDS011;17297;54.022;10.760;2023-05-10T04:26:54;10.57;;;4.25;;
30515;SDS011;17297;54.022;10.760;2023-05-10T04:29:20;6.57;;;4.57;;
30515;SDS011;17297;54.022;10.760;2023-05-10T04:31:46;6.72;;;3.97;;
30515;SDS011;17297;54.022;10.760;2023-05-10T04:34:11;4.32;;;3.92;;
30515;SDS011;17297;54.022;10.760;2023-05-10T04:36:36;7.78;;;4.00;;
30515;SDS011;17297;54.022;10.760;2023-05-10T04:39:02;4.35;;;3.95;;
30515;SDS011;17297;54.022;10.760;2023-05-10T04:41:28;5.88;;;4.05;;
30515;SDS011;17297;54.022;10.760;2023-05-10T04:43:53;5.22;;;4.53;;
30515;SDS011;17297;54.022;10.760;2023-05-10T04:46:19;4.72;;;3.78;;
30515;SDS011;17297;54.022;10.760;2023-05-10T04:48:44;6.97;;;4.53;;
30515;SDS011;17297;54.022;10.760;2023-05-10T04:51:09;6.75;;;3.80;;
30515;SDS011;17297;54.022;10.760;2023-05-10T04:53:35;5.93;;;4.18;;
30515;SDS011;17297;54.022;10.760;2023-05-10T04:56:00;4.78;;;4.05;;
30515;SDS011;17297;54.022;10.760;2023-05-10T04:58:26;7.22;;;4.88;;
30515;SDS011;17297;54.022;10.760;2023-05-10T05:00:51;5.88;;;5.13;;
30515;SDS011;17297;54.022;10.760;2023-05-10T05:03:16;5.20;;;3.95;;
30515;SDS011;17297;54.022;10.760;2023-05-10T05:05:43;4.53;;;3.83;;
30515;SDS011;17297;54.022;10.760;2023-05-10T05:08:08;6.57;;;4.72;;
30515;SDS011;17297;54.022;10.760;2023-05-10T05:10:34;4.70;;;4.30;;
30515;SDS011;17297;54.022;10.760;2023-05-10T05:12:59;4.55;;;3.80;;
30515;SDS011;17297;54.022;10.760;2023-05-10T05:15:25;3.70;;;3.33;;
30515;SDS011;17297;54.022;10.760;2023-05-10T05:17:50;3.92;;;3.55;;
30515;SDS011;17297;54.022;10.760;2023-05-10T05:20:15;4.07;;;3.67;;
30515;SDS011;17297;54.022;10.760;2023-05-10T05:22:41;3.70;;;3.40;;
30515;SDS011;17297;54.022;10.760;2023-05-10T05:25:06;5.28;;;3.55;;
30515;SDS011;17297;54.022;10.760;2023-05-10T05:27:32;5.57;;;3.60;;
30515;SDS011;17297;54.022;10.760;2023-05-10T05:29:57;4.25;;;3.80;;
30515;SDS011;17297;54.022;10.760;2023-05-10T05:32:23;4.55;;;3.53;;
30515;SDS011;17297;54.022;10.760;2023-05-10T05:34:49;6.65;;;4.03;;
30515;SDS011;17297;54.022;10.760;2023-05-10T05:37:15;5.18;;;4.13;;
30515;SDS011;17297;54.022;10.760;2023-05-10T05:39:42;5.68;;;3.63;;
30515;SDS011;17297;54.022;10.760;2023-05-10T05:42:08;5.60;;;4.38;;
30515;SDS011;17297;54.022;10.760;2023-05-10T05:44:34;4.15;;;3.75;;
30515;SDS011;17297;54.022;10.760;2023-05-10T05:46:59;7.05;;;4.25;;
30515;SDS011;17297;54.022;10.760;2023-05-10T05:49:25;5.10;;;3.15;;
30515;SDS011;17297;54.022;10.760;2023-05-10T05:51:50;4.40;;;3.60;;
30515;SDS011;17297;54.022;10.760;2023-05-10T05:54:15;4.30;;;3.60;;
30515;SDS011;17297;54.022;10.760;2023-05-10T05:56:41;4.95;;;3.53;;
30515;SDS011;17297;54.022;10.760;2023-05-10T05:59:06;4.53;;;4.13;;
30515;SDS011;17297;54.022;10.760;2023-05-10T06:01:32;3.53;;;3.20;;
30515;SDS011;17297;54.022;10.760;2023-05-10T06:03:57;5.45;;;4.15;;
30515;SDS011;17297;54.022;10.760;2023-05-10T06:06:22;5.40;;;3.90;;
30515;SDS011;17297;54.022;10.760;2023-05-10T06:08:48;8.07;;;4.57;;
30515;SDS011;17297;54.022;10.760;2023-05-10T06:11:13;4.75;;;3.50;;
30515;SDS011;17297;54.022;10.760;2023-05-10T06:13:38;5.05;;;4.57;;
30515;SDS011;17297;54.022;10.760;2023-05-10T06:16:04;5.90;;;3.83;;
30515;SDS011;17297;54.022;10.760;2023-05-10T06:18:29;4.78;;;4.00;;
30515;SDS011;17297;54.022;10.760;2023-05-10T06:20:55;5.97;;;4.20;;
30515;SDS011;17297;54.022;10.760;2023-05-10T06:23:20;6.03;;;3.83;;
30515;SDS011;17297;54.022;10.760;2023-05-10T06:25:45;7.10;;;3.90;;
30515;SDS011;17297;54.022;10.760;2023-05-10T06:28:11;3.78;;;3.20;;
30515;SDS011;17297;54.022;10.760;2023-05-10T06:30:36;4.18;;;3.60;;
30515;SDS011;17297;54.022;10.760;2023-05-10T06:33:02;4.18;;;3.67;;
30515;SDS011;17297;54.022;10.760;2023-05-10T06:35:27;6.53;;;3.85;;
30515;SDS011;17297;54.022;10.760;2023-05-10T06:37:54;4.45;;;3.70;;
30515;SDS011;17297;54.022;10.760;2023-05-10T06:40:20;5.22;;;3.72;;
30515;SDS011;17297;54.022;10.760;2023-05-10T06:42:46;3.83;;;3.10;;
30515;SDS011;17297;54.022;10.760;2023-05-10T06:45:12;6.03;;;3.60;;
30515;SDS011;17297;54.022;10.760;2023-05-10T06:47:38;4.70;;;4.30;;
30515;SDS011;17297;54.022;10.760;2023-05-10T06:50:03;6.18;;;3.50;;
30515;SDS011;17297;54.022;10.760;2023-05-10T06:52:29;3.83;;;3.17;;
30515;SDS011;17297;54.022;10.760;2023-05-10T06:54:54;4.65;;;3.38;;
30515;SDS011;17297;54.022;10.760;2023-05-10T06:57:19;4.47;;;3.70;;
30515;SDS011;17297;54.022;10.760;2023-05-10T06:59:45;3.53;;;3.22;;
30515;SDS011;17297;54.022;10.760;2023-05-10T07:02:11;4.55;;;3.67;;
30515;SDS011;17297;54.022;10.760;2023-05-10T07:04:36;3.42;;;3.05;;
30515;SDS011;17297;54.022;10.760;2023-05-10T07:07:01;4.22;;;3.50;;
30515;SDS011;17297;54.022;10.760;2023-05-10T07:09:27;3.78;;;3.15;;
30515;SDS011;17297;54.022;10.760;2023-05-10T07:11:52;4.95;;;3.38;;
30515;SDS011;17297;54.022;10.760;2023-05-10T07:14:17;4.55;;;3.47;;
30515;SDS011;17297;54.022;10.760;2023-05-10T07:16:43;6.70;;;3.63;;
30515;SDS011;17297;54.022;10.760;2023-05-10T07:19:09;5.50;;;3.53;;
30515;SDS011;17297;54.022;10.760;2023-05-10T07:21:34;5.47;;;3.40;;
30515;SDS011;17297;54.022;10.760;2023-05-10T07:24:00;5.35;;;4.18;;
30515;SDS011;17297;54.022;10.760;2023-05-10T07:26:25;5.50;;;3.42;;
30515;SDS011;17297;54.022;10.760;2023-05-10T07:28:51;6.47;;;3.60;;
30515;SDS011;17297;54.022;10.760;2023-05-10T07:31:16;6.90;;;4.10;;
30515;SDS011;17297;54.022;10.760;2023-05-10T07:33:42;4.57;;;3.65;;
30515;SDS011;17297;54.022;10.760;2023-05-10T07:36:07;4.15;;;3.60;;
30515;SDS011;17297;54.022;10.760;2023-05-10T07:38:32;4.65;;;3.67;;
30515;SDS011;17297;54.022;10.760;2023-05-10T07:40:58;4.55;;;3.80;;
30515;SDS011;17297;54.022;10.760;2023-05-10T07:43:23;6.18;;;4.60;;
30515;SDS011;17297;54.022;10.760;2023-05-10T07:45:50;4.68;;;4.20;;
30515;SDS011;17297;54.022;10.760;2023-05-10T07:48:15;4.30;;;3.90;;
30515;SDS011;17297;54.022;10.760;2023-05-10T07:50:40;3.95;;;3.50;;
30515;SDS011;17297;54.022;10.760;2023-05-10T07:53:06;4.75;;;3.72;;
30515;SDS011;17297;54.022;10.760;2023-05-10T07:55:31;4.25;;;3.70;;
30515;SDS011;17297;54.022;10.760;2023-05-10T07:57:56;4.00;;;3.10;;
30515;SDS011;17297;54.022;10.760;2023-05-10T08:00:22;14.48;;;3.67;;
30515;SDS011;17297;54.022;10.760;2023-05-10T08:02:47;4.90;;;4.07;;
30515;SDS011;17297;54.022;10.760;2023-05-10T08:05:13;5.68;;;4.18;;
30515;SDS011;17297;54.022;10.760;2023-05-10T08:07:38;4.95;;;3.65;;
30515;SDS011;17297;54.022;10.760;2023-05-10T08:10:04;3.72;;;3.42;;
30515;SDS011;17297;54.022;10.760;2023-05-10T08:12:30;3.50;;;3.20;;
30515;SDS011;17297;54.022;10.760;2023-05-10T08:14:55;3.80;;;3.50;;
30515;SDS011;17297;54.022;10.760;2023-05-10T08:17:21;4.15;;;3.42;;
30515;SDS011;17297;54.022;10.760;2023-05-10T08:19:46;4.07;;;3.67;;
30515;SDS011;17297;54.022;10.760;2023-05-10T08:22:12;3.60;;;3.30;;
30515;SDS011;17297;54.022;10.760;2023-05-10T08:24:38;5.00;;;3.63;;
30515;SDS011;17297;54.022;10.760;2023-05-10T08:27:04;5.03;;;3.83;;
30515;SDS011;17297;54.022;10.760;2023-05-10T08:29:30;4.82;;;4.05;;
30515;SDS011;17297;54.022;10.760;2023-05-10T08:31:55;4.43;;;3.28;;
30515;SDS011;17297;54.022;10.760;2023-05-10T08:34:21;3.55;;;3.25;;
30515;SDS011;17297;54.022;10.760;2023-05-10T08:36:46;4.45;;;3.92;;
30515;SDS011;17297;54.022;10.760;2023-05-10T08:39:13;3.65;;;3.30;;
30515;SDS011;17297;54.022;10.760;2023-05-10T08:41:38;4.90;;;2.70;;
30515;SDS011;17297;54.022;10.760;2023-05-10T08:44:04;3.83;;;2.88;;
30515;SDS011;17297;54.022;10.760;2023-05-10T08:46:30;3.20;;;2.92;;
30515;SDS011;17297;54.022;10.760;2023-05-10T08:49:00;5.60;;;3.88;;
30515;SDS011;17297;54.022;10.760;2023-05-10T08:51:29;3.67;;;3.00;;
30515;SDS011;17297;54.022;10.760;2023-05-10T08:54:00;4.38;;;3.58;;
30515;SDS011;17297;54.022;10.760;2023-05-10T08:56:25;4.25;;;3.35;;
30515;SDS011;17297;54.022;10.760;2023-05-10T08:58:51;4.60;;;3.58;;
30515;SDS011;17297;54.022;10.760;2023-05-10T09:01:16;5.20;;;3.55;;
30515;SDS011;17297;54.022;10.760;2023-05-10T09:03:44;3.95;;;3.50;;
30515;SDS011;17297;54.022;10.760;2023-05-10T09:06:11;5.88;;;3.92;;
30515;SDS011;17297;54.022;10.760;2023-05-10T09:08:38;4.53;;;4.03;;
30515;SDS011;17297;54.022;10.760;2023-05-10T09:11:05;8.45;;;3.95;;
30515;SDS011;17297;54.022;10.760;2023-05-10T09:13:30;5.30;;;4.88;;
30515;SDS011;17297;54.022;10.760;2023-05-10T09:15:56;5.85;;;3.90;;
30515;SDS011;17297;54.022;10.760;2023-05-10T09:18:22;4.35;;;3.30;;
30515;SDS011;17297;54.022;10.760;2023-05-10T09:20:48;6.60;;;4.40;;
30515;SDS011;17297;54.022;10.760;2023-05-10T09:23:14;3.63;;;3.30;;
30515;SDS011;17297;54.022;10.760;2023-05-10T09:25:41;3.83;;;3.53;;
30515;SDS011;17297;54.022;10.760;2023-05-10T09:28:07;4.88;;;4.20;;
30515;SDS011;17297;54.022;10.760;2023-05-10T09:30:35;4.63;;;3.80;;
30515;SDS011;17297;54.022;10.760;2023-05-10T09:33:01;4.00;;;3.45;;
30515;SDS011;17297;54.022;10.760;2023-05-10T09:35:27;5.53;;;3.65;;
30515;SDS011;17297;54.022;10.760;2023-05-10T09:37:55;4.80;;;3.58;;
30515;SDS011;17297;54.022;10.760;2023-05-10T09:40:22;6.32;;;3.75;;
30515;SDS011;17297;54.022;10.760;2023-05-10T09:42:59;4.15;;;3.70;;
30515;SDS011;17297;54.022;10.760;2023-05-10T09:45:29;6.00;;;3.65;;
30515;SDS011;17297;54.022;10.760;2023-05-10T09:47:56;4.00;;;3.47;;
30515;SDS011;17297;54.022;10.760;2023-05-10T09:50:22;6.03;;;3.25;;
30515;SDS011;17297;54.022;10.760;2023-05-10T09:52:55;5.97;;;3.33;;
30515;SDS011;17297;54.022;10.760;2023-05-10T09:55:41;3.83;;;3.08;;
30515;SDS011;17297;54.022;10.760;2023-05-10T09:58:09;3.80;;;3.33;;
30515;SDS011;17297;54.022;10.760;2023-05-10T10:00:35;3.65;;;3.22;;
30515;SDS011;17297;54.022;10.760;2023-05-10T10:03:02;5.03;;;3.60;;
30515;SDS011;17297;54.022;10.760;2023-05-10T10:05:38;11.10;;;3.65;;
30515;SDS011;17297;54.022;10.760;2023-05-10T10:08:05;3.97;;;3.45;;
30515;SDS011;17297;54.022;10.760;2023-05-10T10:10:31;3.85;;;3.17;;
30515;SDS011;17297;54.022;10.760;2023-05-10T10:12:58;6.40;;;4.45;;
30515;SDS011;17297;54.022;10.760;2023-05-10T10:15:23;5.72;;;3.85;;
30515;SDS011;17297;54.022;10.760;2023-05-10T10:17:50;5.80;;;3.80;;
30515;SDS011;17297;54.022;10.760;2023-05-10T10:20:16;4.00;;;3.65;;
30515;SDS011;17297;54.022;10.760;2023-05-10T10:22:42;3.33;;;2.95;;
30515;SDS011;17297;54.022;10.760;2023-05-10T10:25:11;5.45;;;4.03;;
30515;SDS011;17297;54.022;10.760;2023-05-10T10:35:53;18.42;;;4.35;;
30515;SDS011;17297;54.022;10.760;2023-05-10T10:38:20;3.30;;;3.00;;
30515;SDS011;17297;54.022;10.760;2023-05-10T10:40:45;4.25;;;3.58;;
30515;SDS011;17297;54.022;10.760;2023-05-10T10:43:26;5.35;;;3.85;;
30515;SDS011;17297;54.022;10.760;2023-05-10T10:48:49;4.20;;;3.80;;
30515;SDS011;17297;54.022;10.760;2023-05-10T10:51:32;4.65;;;3.80;;
30515;SDS011;17297;54.022;10.760;2023-05-10T10:54:08;5.03;;;4.15;;
30515;SDS011;17297;54.022;10.760;2023-05-10T10:56:37;3.75;;;3.30;;
30515;SDS011;17297;54.022;10.760;2023-05-10T10:59:02;4.93;;;3.88;;
30515;SDS011;17297;54.022;10.760;2023-05-10T11:01:32;10.82;;;4.13;;
30515;SDS011;17297;54.022;10.760;2023-05-10T11:06:29;4.10;;;2.70;;
30515;SDS011;17297;54.022;10.760;2023-05-10T11:08:57;3.65;;;2.78;;
30515;SDS011;17297;54.022;10.760;2023-05-10T11:11:22;4.05;;;2.75;;
30515;SDS011;17297;54.022;10.760;2023-05-10T11:13:48;2.47;;;2.28;;
30515;SDS011;17297;54.022;10.760;2023-05-10T11:18:53;4.30;;;2.95;;
30515;SDS011;17297;54.022;10.760;2023-05-10T11:21:22;4.38;;;3.97;;
30515;SDS011;17297;54.022;10.760;2023-05-10T11:26:15;3.78;;;3.17;;
30515;SDS011;17297;54.022;10.760;2023-05-10T11:28:44;2.90;;;2.60;;
30515;SDS011;17297;54.022;10.760;2023-05-10T11:31:13;3.33;;;2.83;;
30515;SDS011;17297;54.022;10.760;2023-05-10T11:33:43;3.00;;;2.70;;
30515;SDS011;17297;54.022;10.760;2023-05-10T11:36:17;2.97;;;2.78;;
30515;SDS011;17297;54.022;10.760;2023-05-10T11:38:52;3.03;;;2.35;;
30515;SDS011;17297;54.022;10.760;2023-05-10T11:41:19;3.58;;;3.05;;
30515;SDS011;17297;54.022;10.760;2023-05-10T11:43:51;2.55;;;2.35;;
30515;SDS011;17297;54.022;10.760;2023-05-10T11:46:18;3.10;;;2.90;;
30515;SDS011;17297;54.022;10.760;2023-05-10T11:48:46;3.58;;;2.90;;
30515;SDS011;17297;54.022;10.760;2023-05-10T11:51:12;3.35;;;2.80;;
30515;SDS011;17297;54.022;10.760;2023-05-10T11:53:38;3.40;;;2.78;;
30515;SDS011;17297;54.022;10.760;2023-05-10T11:56:04;3.33;;;2.70;;
30515;SDS011;17297;54.022;10.760;2023-05-10T11:58:31;3.40;;;2.80;;
30515;SDS011;17297;54.022;10.760;2023-05-10T12:00:57;3.55;;;2.50;;
30515;SDS011;17297;54.022;10.760;2023-05-10T12:03:24;3.45;;;2.22;;
30515;SDS011;17297;54.022;10.760;2023-05-10T12:05:50;3.33;;;2.55;;
30515;SDS011;17297;54.022;10.760;2023-05-10T12:08:19;2.85;;;2.33;;
30515;SDS011;17297;54.022;10.760;2023-05-10T12:10:47;4.03;;;2.55;;
30515;SDS011;17297;54.022;10.760;2023-05-10T12:13:13;3.08;;;2.40;;
30515;SDS011;17297;54.022;10.760;2023-05-10T12:15:40;2.90;;;2.60;;
30515;SDS011;17297;54.022;10.760;2023-05-10T12:18:07;2.67;;;2.47;;
30515;SDS011;17297;54.022;10.760;2023-05-10T12:20:35;3.33;;;3.03;;
30515;SDS011;17297;54.022;10.760;2023-05-10T12:23:02;4.82;;;3.20;;
30515;SDS011;17297;54.022;10.760;2023-05-10T12:25:32;3.90;;;3.20;;
30515;SDS011;17297;54.022;10.760;2023-05-10T12:27:59;2.95;;;2.53;;
30515;SDS011;17297;54.022;10.760;2023-05-10T12:30:28;2.88;;;2.63;;
30515;SDS011;17297;54.022;10.760;2023-05-10T12:33:02;2.63;;;2.42;;
30515;SDS011;17297;54.022;10.760;2023-05-10T12:35:32;3.30;;;3.00;;
30515;SDS011;17297;54.022;10.760;2023-05-10T12:37:58;3.00;;;2.70;;
30515;SDS011;17297;54.022;10.760;2023-05-10T12:40:24;2.53;;;2.33;;
30515;SDS011;17297;54.022;10.760;2023-05-10T12:42:50;2.90;;;2.40;;
30515;SDS011;17297;54.022;10.760;2023-05-10T12:45:16;3.30;;;2.60;;
30515;SDS011;17297;54.022;10.760;2023-05-10T12:47:43;3.45;;;2.53;;
30515;SDS011;17297;54.022;10.760;2023-05-10T12:50:08;3.25;;;2.38;;
30515;SDS011;17297;54.022;10.760;2023-05-10T12:52:34;2.80;;;2.42;;
30515;SDS011;17297;54.022;10.760;2023-05-10T12:54:59;2.47;;;2.28;;
30515;SDS011;17297;54.022;10.760;2023-05-10T12:57:25;2.67;;;2.47;;
30515;SDS011;17297;54.022;10.760;2023-05-10T12:59:52;2.83;;;2.45;;
30515;SDS011;17297;54.022;10.760;2023-05-10T13:02:18;2.55;;;2.35;;
30515;SDS011;17297;54.022;10.760;2023-05-10T13:04:45;2.65;;;2.45;;
30515;SDS011;17297;54.022;10.760;2023-05-10T13:07:11;2.60;;;2.40;;
30515;SDS011;17297;54.022;10.760;2023-05-10T13:09:36;2.85;;;2.47;;
30515;SDS011;17297;54.022;10.760;2023-05-10T13:12:02;2.45;;;2.25;;
30515;SDS011;17297;54.022;10.760;2023-05-10T13:14:28;2.83;;;2.33;;
30515;SDS011;17297;54.022;10.760;2023-05-10T13:16:54;3.38;;;2.63;;
30515;SDS011;17297;54.022;10.760;2023-05-10T13:19:19;4.03;;;3.10;;
30515;SDS011;17297;54.022;10.760;2023-05-10T13:21:45;2.90;;;2.70;;
30515;SDS011;17297;54.022;10.760;2023-05-10T13:24:10;3.00;;;2.72;;
30515;SDS011;17297;54.022;10.760;2023-05-10T13:26:38;2.90;;;2.70;;
30515;SDS011;17297;54.022;10.760;2023-05-10T13:29:05;3.30;;;3.00;;
30515;SDS011;17297;54.022;10.760;2023-05-10T13:31:30;3.63;;;3.35;;
30515;SDS011;17297;54.022;10.760;2023-05-10T13:33:56;3.17;;;2.88;;
30515;SDS011;17297;54.022;10.760;2023-05-10T13:36:21;3.25;;;2.95;;
30515;SDS011;17297;54.022;10.760;2023-05-10T13:38:47;3.30;;;3.00;;
30515;SDS011;17297;54.022;10.760;2023-05-10T13:41:13;4.10;;;3.67;;
30515;SDS011;17297;54.022;10.760;2023-05-10T13:43:38;4.35;;;3.20;;
30515;SDS011;17297;54.022;10.760;2023-05-10T13:46:03;4.63;;;2.97;;
30515;SDS011;17297;54.022;10.760;2023-05-10T13:48:29;3.80;;;3.20;;
30515;SDS011;17297;54.022;10.760;2023-05-10T13:50:54;3.90;;;3.22;;
30515;SDS011;17297;54.022;10.760;2023-05-10T13:53:19;3.83;;;2.97;;
30515;SDS011;17297;54.022;10.760;2023-05-10T13:55:48;5.55;;;3.67;;
30515;SDS011;17297;54.022;10.760;2023-05-10T13:58:14;3.75;;;3.15;;
30515;SDS011;17297;54.022;10.760;2023-05-10T14:00:39;3.75;;;3.42;;
30515;SDS011;17297;54.022;10.760;2023-05-10T14:03:05;3.45;;;3.15;;
30515;SDS011;17297;54.022;10.760;2023-05-10T14:05:31;4.20;;;3.80;;
30515;SDS011;17297;54.022;10.760;2023-05-10T14:07:57;4.95;;;3.70;;
30515;SDS011;17297;54.022;10.760;2023-05-10T14:10:23;4.03;;;3.60;;
30515;SDS011;17297;54.022;10.760;2023-05-10T14:12:49;4.18;;;3.78;;
30515;SDS011;17297;54.022;10.760;2023-05-10T14:15:15;3.78;;;3.35;;
30515;SDS011;17297;54.022;10.760;2023-05-10T14:17:40;4.10;;;3.60;;
30515;SDS011;17297;54.022;10.760;2023-05-10T14:20:05;4.82;;;4.43;;
30515;SDS011;17297;54.022;10.760;2023-05-10T14:22:31;5.03;;;4.00;;
30515;SDS011;17297;54.022;10.760;2023-05-10T14:24:56;4.88;;;3.83;;
30515;SDS011;17297;54.022;10.760;2023-05-10T14:27:23;4.20;;;3.72;;
30515;SDS011;17297;54.022;10.760;2023-05-10T14:29:48;4.38;;;3.85;;
30515;SDS011;17297;54.022;10.760;2023-05-10T14:32:13;5.00;;;4.50;;
30515;SDS011;17297;54.022;10.760;2023-05-10T14:34:39;3.80;;;3.45;;
30515;SDS011;17297;54.022;10.760;2023-05-10T14:37:04;4.70;;;4.15;;
30515;SDS011;17297;54.022;10.760;2023-05-10T14:39:29;4.93;;;4.18;;
30515;SDS011;17297;54.022;10.760;2023-05-10T14:41:55;4.22;;;3.63;;
30515;SDS011;17297;54.022;10.760;2023-05-10T14:44:20;4.18;;;3.70;;
30515;SDS011;17297;54.022;10.760;2023-05-10T14:46:46;4.95;;;4.47;;
30515;SDS011;17297;54.022;10.760;2023-05-10T14:49:12;3.92;;;3.60;;
30515;SDS011;17297;54.022;10.760;2023-05-10T14:51:37;4.78;;;4.28;;
30515;SDS011;17297;54.022;10.760;2023-05-10T14:54:02;4.18;;;3.38;;
30515;SDS011;17297;54.022;10.760;2023-05-10T14:56:28;3.70;;;3.30;;
30515;SDS011;17297;54.022;10.760;2023-05-10T14:58:53;4.47;;;4.07;;